createdAt,value
2022-12-08T00:02:26.896Z,0.37
2022-12-08T00:17:29.914Z,0.21
2022-12-08T00:32:32.660Z,0.35
2022-12-08T00:47:36.062Z,0.25
2022-12-08T01:02:38.817Z,0.31
2022-12-08T01:17:41.770Z,0.16
2022-12-08T01:32:44.685Z,-0.12
2022-12-08T01:47:51.500Z,-0.04
2022-12-08T02:03:02.306Z,0.02
2022-12-08T02:19:31.464Z,-0.13
2022-12-08T02:34:52.432Z,-0.12
2022-12-08T02:49:57.068Z,-0.26
2022-12-08T03:05:42.854Z,-0.24
2022-12-08T03:20:47.148Z,-0.35
2022-12-08T03:35:51.312Z,-0.36
2022-12-08T03:50:54.112Z,-0.55
2022-12-08T04:05:57.302Z,-0.54
2022-12-08T04:21:15.116Z,-0.19
2022-12-08T04:36:17.655Z,-0.24
2022-12-08T04:51:34.760Z,-0.40
2022-12-08T05:06:37.759Z,-0.45
2022-12-08T05:21:41.352Z,-0.52
2022-12-08T05:36:44.096Z,-0.46
2022-12-08T06:02:51.855Z,0.06
2022-12-08T06:17:54.731Z,-0.19
2022-12-08T06:32:57.354Z,-0.19
2022-12-08T06:48:01.760Z,0.16
2022-12-08T07:03:04.613Z,0.10
2022-12-08T07:18:07.467Z,0.06
2022-12-08T07:33:09.804Z,0.36
2022-12-08T07:48:27.625Z,0.31
2022-12-08T08:03:30.315Z,0.46
2022-12-08T08:18:34.980Z,0.83
2022-12-08T08:33:37.374Z,0.84
2022-12-08T08:48:54.803Z,0.70
2022-12-08T09:03:58.571Z,0.81
2022-12-08T09:19:01.896Z,1.11
2022-12-08T09:34:19.045Z,1.12
2022-12-08T09:49:49.412Z,1.20
2022-12-08T10:04:56.176Z,1.32
2022-12-08T10:20:17.614Z,1.59
2022-12-08T10:35:24.941Z,1.72
2022-12-08T10:50:31.602Z,1.84
2022-12-08T11:05:36.492Z,2.01
2022-12-08T11:20:41.458Z,2.01
2022-12-08T11:35:51.077Z,2.09
2022-12-08T11:51:19.002Z,2.14
2022-12-08T12:06:55.450Z,2.42
2022-12-08T12:22:19.574Z,2.63
2022-12-08T12:37:38.247Z,2.71
2022-12-08T12:52:42.488Z,2.79
2022-12-08T13:07:56.979Z,2.89
2022-12-08T13:23:47.690Z,3.26
2022-12-08T13:38:59.515Z,3.33
2022-12-08T14:10:19.241Z,3.06
2022-12-08T14:25:25.371Z,2.88
2022-12-08T14:44:39.675Z,2.81
2022-12-08T14:59:45.459Z,3.02
2022-12-08T15:15:09.941Z,2.84
2022-12-08T15:30:15.844Z,2.50
2022-12-08T15:45:26.299Z,2.25
2022-12-08T16:16:20.212Z,2.22
2022-12-08T16:31:23.603Z,2.00
2022-12-08T16:46:27.925Z,1.90
2022-12-08T17:01:31.245Z,2.25
2022-12-08T17:16:34.789Z,2.15
2022-12-08T17:31:37.972Z,2.04
2022-12-08T17:46:46.400Z,2.29
2022-12-08T18:01:55.775Z,2.26
2022-12-08T18:16:58.674Z,2.20
2022-12-08T18:32:01.277Z,2.38
2022-12-08T18:47:19.224Z,2.26
2022-12-08T19:02:22.786Z,2.41
2022-12-08T19:17:26.113Z,2.39
2022-12-08T19:32:30.602Z,2.44
2022-12-08T19:47:33.612Z,2.50
2022-12-08T20:02:51.913Z,2.62
2022-12-08T20:17:54.807Z,2.53
2022-12-08T20:32:57.630Z,2.41
2022-12-08T20:48:00.495Z,2.41
2022-12-08T21:03:03.897Z,2.51
2022-12-08T21:18:07.023Z,2.33
2022-12-08T21:33:10.226Z,2.18
2022-12-08T21:48:13.286Z,2.27
2022-12-08T22:03:17.949Z,2.69
2022-12-08T22:18:21.158Z,2.61
2022-12-08T22:33:24.796Z,2.39
